Wisconsin Dells, Wisconsin
Current Conditions -  °F | °C
As of 11:30 AM on Saturday 20 Dec 2014 (Local Time) from KDLL Reporting Station
Overcast Overcast  
Wind Chill: 21°   Ceiling: 2100
Heat Index: 28°   Visibility: 7mi
Dew Point: 24°   Wind: 7mph
Humidity: 84%   Direction: 130°SE
Pressure: 30.22"   Gusts: NA
Location:  43.63°N, 89.77°W
Report Text: KDLL 201730Z AUTO 13006KT 7SM OVC021 M02/M04 A3022 RMK AO2 T10201044
Loading
Personal Weather Stations






























Interactive Weather Map New forecast layout! Learn more

10-Day Weather Forecast

Advertisements
Track Severe Weather on mobile